CheckWX is a tool to help pilots better visualize weather data.  It is not intended as a substitute for an official pre-flight weather briefing.

01:04:48 UTC

FEFF METAR
Bangui M'Poko International Airport
Bangui, Central African Republic
Current

1 hour ago

FEFF 240000Z 00000KT CAVOK 27/22 Q1009 NOSIG
Observed
Feb-24 @ 00:00 UTC
Visibility
10,000+ meters
Flight Rules
VFR
Cloud Levels
  • Clear skies
Temperature
27°C / 81°F
Dewpoint
22°C / 72°F
Humidity
74%
Altimeter
29.79" Hg
Pressure
1008.92 hPa
Previous

2 hours ago

FEFF 232300Z VRB03KT CAVOK 27/22 Q1010 NOSIG
Observed
Feb-23 @ 23:00 UTC
Wind
  • Variable at 3 KTS
Visibility
10,000+ meters
Flight Rules
VFR
Cloud Levels
  • Clear skies
Temperature
27°C / 81°F
Dewpoint
22°C / 72°F
Humidity
74%
Altimeter
29.82" Hg
Pressure
1009.92 hPa
Previous

3 hours ago

FEFF 232200Z VRB02KT 8000 NSC 27/22 Q1010 NOSIG
Observed
Feb-23 @ 22:00 UTC
Wind
  • Variable at 2 KTS
Visibility
7,998 meters
Flight Rules
MVFR
Cloud Levels
  • Clear skies
Temperature
27°C / 81°F
Dewpoint
22°C / 72°F
Humidity
74%
Altimeter
29.82" Hg
Pressure
1009.92 hPa